createdAt,value
2022-12-18T00:00:01.140Z,71.65
2022-12-18T00:00:22.189Z,71.65
2022-12-18T00:00:43.285Z,71.65
2022-12-18T00:01:04.339Z,71.66
2022-12-18T00:01:25.431Z,71.71
2022-12-18T00:01:46.553Z,71.73
2022-12-18T00:02:07.647Z,71.66
2022-12-18T00:02:28.777Z,71.66
2022-12-18T00:02:49.975Z,71.62
2022-12-18T00:03:11.204Z,71.53
2022-12-18T00:03:32.396Z,71.52
2022-12-18T00:03:53.760Z,71.49
2022-12-18T00:04:15.056Z,71.47
2022-12-18T00:04:36.143Z,71.44
2022-12-18T00:04:57.396Z,71.47
2022-12-18T00:05:18.439Z,71.50
2022-12-18T00:05:39.509Z,71.47
2022-12-18T00:06:00.688Z,71.55
2022-12-18T00:06:21.705Z,71.56
2022-12-18T00:06:42.755Z,71.56
2022-12-18T00:07:05.593Z,71.64
2022-12-18T00:07:26.748Z,71.60
2022-12-18T00:07:47.789Z,71.54
2022-12-18T00:08:09.266Z,71.57
2022-12-18T00:08:30.618Z,71.58
2022-12-18T00:08:51.689Z,71.56
2022-12-18T00:09:12.753Z,71.63
2022-12-18T00:09:39.965Z,71.59
2022-12-18T00:10:00.796Z,71.69
2022-12-18T00:10:21.855Z,71.67
2022-12-18T00:10:42.950Z,71.63
2022-12-18T00:11:04.016Z,71.69
2022-12-18T00:11:28.135Z,71.72
2022-12-18T00:11:49.194Z,71.69
2022-12-18T00:12:37.225Z,71.63
2022-12-18T00:12:58.297Z,71.64
2022-12-18T00:13:19.429Z,71.58
2022-12-18T00:13:41.070Z,71.51
2022-12-18T00:14:02.302Z,71.43
2022-12-18T00:14:23.363Z,71.43
2022-12-18T00:14:44.433Z,71.38
2022-12-18T00:15:05.514Z,71.31
2022-12-18T00:15:26.583Z,71.30
2022-12-18T00:15:47.701Z,71.20
2022-12-18T00:16:08.794Z,71.20
2022-12-18T00:16:29.930Z,71.22
2022-12-18T00:16:51.044Z,71.21
2022-12-18T00:17:12.103Z,71.21
2022-12-18T00:17:33.152Z,71.16
2022-12-18T00:17:54.215Z,71.13
2022-12-18T00:18:18.957Z,71.04
2022-12-18T00:18:42.510Z,71.01
2022-12-18T00:19:03.618Z,71.00
2022-12-18T00:19:24.678Z,71.02
2022-12-18T00:19:45.737Z,70.98
2022-12-18T00:20:06.818Z,70.96
2022-12-18T00:20:27.870Z,70.87
2022-12-18T00:20:48.935Z,70.79
2022-12-18T00:21:10.032Z,70.75
2022-12-18T00:21:31.067Z,70.65
2022-12-18T00:21:52.115Z,70.67
2022-12-18T00:22:13.216Z,70.67
2022-12-18T00:22:34.267Z,70.66
2022-12-18T00:22:55.326Z,70.71
2022-12-18T00:23:16.415Z,70.75
2022-12-18T00:23:37.996Z,70.79
2022-12-18T00:23:59.255Z,70.78
2022-12-18T00:24:20.353Z,70.84
2022-12-18T00:24:41.794Z,70.87
2022-12-18T00:25:02.869Z,70.85
2022-12-18T00:25:23.954Z,70.83
2022-12-18T00:25:45.344Z,70.86
2022-12-18T00:26:06.401Z,70.88
2022-12-18T00:26:27.465Z,70.93
2022-12-18T00:26:48.584Z,70.94
2022-12-18T00:27:09.649Z,70.96
2022-12-18T00:27:30.708Z,70.89
2022-12-18T00:27:51.774Z,70.94
2022-12-18T00:28:12.829Z,70.89
2022-12-18T00:28:33.943Z,70.89
2022-12-18T00:28:54.991Z,70.93
2022-12-18T00:29:16.044Z,70.93
2022-12-18T00:29:37.098Z,71.04
2022-12-18T00:29:58.176Z,71.03
2022-12-18T00:30:19.235Z,71.05
2022-12-18T00:30:40.335Z,71.07
2022-12-18T00:31:01.474Z,71.02
2022-12-18T00:31:22.623Z,70.96
2022-12-18T00:31:43.755Z,70.98
2022-12-18T00:32:04.932Z,70.97
2022-12-18T00:32:26.125Z,70.97
2022-12-18T00:32:47.148Z,70.97
2022-12-18T00:33:08.219Z,71.01
2022-12-18T00:33:29.279Z,71.13
2022-12-18T00:33:51.216Z,71.14
2022-12-18T00:34:16.158Z,71.28
2022-12-18T00:34:37.223Z,71.36
2022-12-18T00:34:58.279Z,71.43
2022-12-18T00:35:19.336Z,71.47
2022-12-18T00:35:40.512Z,71.55
2022-12-18T00:36:01.585Z,71.54
2022-12-18T00:36:22.649Z,71.61
2022-12-18T00:36:43.712Z,71.61
2022-12-18T00:37:04.765Z,71.64
2022-12-18T00:37:25.826Z,71.67
2022-12-18T00:37:46.910Z,71.67
2022-12-18T00:38:07.985Z,71.70
2022-12-18T00:38:29.070Z,71.75
2022-12-18T00:38:50.135Z,71.84
2022-12-18T00:39:11.243Z,71.83
2022-12-18T00:39:32.276Z,71.83
2022-12-18T00:39:53.339Z,71.86
2022-12-18T00:40:14.403Z,71.85
2022-12-18T00:40:35.577Z,71.85
2022-12-18T00:40:56.603Z,71.92
2022-12-18T00:41:17.856Z,71.96
2022-12-18T00:41:38.924Z,71.98
2022-12-18T00:41:59.981Z,72.00
2022-12-18T00:42:21.033Z,71.97
2022-12-18T00:42:42.093Z,71.95
2022-12-18T00:43:03.170Z,71.97
2022-12-18T00:43:24.230Z,71.96
2022-12-18T00:43:45.528Z,71.98
2022-12-18T00:44:06.564Z,72.01
2022-12-18T00:44:27.663Z,71.99
2022-12-18T00:44:48.705Z,71.99
2022-12-18T00:45:12.882Z,71.97
2022-12-18T00:45:34.352Z,72.06
2022-12-18T00:45:55.549Z,72.06
2022-12-18T00:46:16.724Z,72.10
2022-12-18T00:46:37.933Z,72.08
2022-12-18T00:46:59.017Z,72.22
2022-12-18T00:47:20.056Z,72.26
2022-12-18T00:47:41.115Z,72.34
2022-12-18T00:48:02.187Z,72.33
2022-12-18T00:48:23.283Z,72.33
2022-12-18T00:48:44.331Z,72.39
2022-12-18T00:49:06.211Z,72.41
2022-12-18T00:49:27.292Z,72.46
2022-12-18T00:49:48.328Z,72.48
2022-12-18T00:50:09.383Z,72.46
2022-12-18T00:50:30.505Z,72.49
2022-12-18T00:50:51.547Z,72.50
2022-12-18T00:51:12.620Z,72.42
2022-12-18T00:51:33.666Z,72.41
2022-12-18T00:51:54.888Z,72.38
2022-12-18T00:52:15.938Z,72.35
2022-12-18T00:52:37.022Z,72.35
2022-12-18T00:52:58.083Z,72.33
2022-12-18T00:53:19.158Z,72.36
2022-12-18T00:53:40.782Z,72.32
2022-12-18T00:54:02.017Z,72.32
2022-12-18T00:54:23.090Z,72.40
2022-12-18T00:54:44.129Z,72.44
2022-12-18T00:55:06.647Z,72.49
2022-12-18T00:55:27.825Z,72.52
2022-12-18T00:55:48.898Z,72.54
2022-12-18T00:56:09.960Z,72.57
2022-12-18T00:56:31.016Z,72.60
2022-12-18T00:56:52.080Z,72.59
2022-12-18T00:57:13.317Z,72.60
2022-12-18T00:57:34.369Z,72.59
2022-12-18T00:57:55.438Z,72.66
2022-12-18T00:58:16.498Z,72.67
2022-12-18T00:58:37.579Z,72.63
2022-12-18T00:58:58.633Z,72.64
2022-12-18T00:59:19.711Z,72.64
2022-12-18T00:59:40.763Z,72.60
2022-12-18T01:00:01.850Z,72.53
2022-12-18T01:00:22.969Z,72.51
2022-12-18T01:00:44.102Z,72.46
2022-12-18T01:01:05.211Z,72.41
2022-12-18T01:01:26.449Z,72.38
2022-12-18T01:01:48.002Z,72.34
2022-12-18T01:02:09.349Z,72.33
2022-12-18T01:02:30.668Z,72.30
2022-12-18T01:02:51.857Z,72.25
2022-12-18T01:03:12.997Z,72.17
2022-12-18T01:03:34.044Z,72.18
2022-12-18T01:03:55.122Z,72.15
2022-12-18T01:04:16.175Z,72.16
2022-12-18T01:04:37.244Z,72.15
2022-12-18T01:04:58.309Z,72.18
2022-12-18T01:05:19.350Z,72.24
2022-12-18T01:05:40.410Z,72.21
2022-12-18T01:06:01.480Z,72.29
2022-12-18T01:06:22.531Z,72.28
2022-12-18T01:06:43.587Z,72.28
2022-12-18T01:07:05.719Z,72.36
2022-12-18T01:07:26.788Z,72.25
2022-12-18T01:07:47.876Z,72.22
2022-12-18T01:08:08.931Z,72.20
2022-12-18T01:08:30.084Z,72.14
2022-12-18T01:08:51.116Z,72.20
2022-12-18T01:09:12.180Z,72.22
2022-12-18T01:09:33.247Z,72.19
2022-12-18T01:09:54.307Z,72.17
2022-12-18T01:10:15.409Z,72.12
2022-12-18T01:10:36.453Z,72.00
2022-12-18T01:10:57.511Z,72.05
2022-12-18T01:11:18.587Z,72.07
2022-12-18T01:11:39.639Z,72.11
2022-12-18T01:12:00.695Z,72.13
2022-12-18T01:12:21.780Z,72.10
2022-12-18T01:12:42.826Z,72.16
2022-12-18T01:13:04.058Z,72.15
2022-12-18T01:13:25.120Z,72.17
2022-12-18T01:13:46.184Z,72.14
2022-12-18T01:14:07.242Z,72.13
2022-12-18T01:14:28.294Z,72.14
2022-12-18T01:14:49.373Z,72.08
2022-12-18T01:15:10.463Z,72.13
2022-12-18T01:15:31.594Z,72.12
2022-12-18T01:15:52.657Z,72.05
2022-12-18T01:16:13.729Z,72.03
2022-12-18T01:16:34.931Z,72.02
2022-12-18T01:16:55.972Z,72.06
2022-12-18T01:17:17.081Z,72.00
2022-12-18T01:17:38.137Z,71.99
2022-12-18T01:17:59.190Z,71.93
2022-12-18T01:18:20.413Z,71.83
2022-12-18T01:18:41.470Z,71.79
2022-12-18T01:19:02.538Z,71.79
2022-12-18T01:19:23.594Z,71.78
2022-12-18T01:19:44.662Z,71.77
2022-12-18T01:20:05.717Z,71.79
2022-12-18T01:20:26.805Z,71.80
2022-12-18T01:20:47.862Z,71.83
2022-12-18T01:21:08.927Z,71.90
2022-12-18T01:21:29.995Z,71.85
2022-12-18T01:21:51.131Z,71.81
2022-12-18T01:22:12.183Z,71.84
2022-12-18T01:22:33.372Z,71.82
2022-12-18T01:22:54.403Z,71.84
2022-12-18T01:23:15.475Z,71.82
2022-12-18T01:23:37.016Z,71.88
2022-12-18T01:23:58.295Z,71.86
2022-12-18T01:24:19.390Z,71.81
2022-12-18T01:24:40.488Z,71.80
2022-12-18T01:25:01.538Z,71.83
2022-12-18T01:25:22.575Z,71.86
2022-12-18T01:25:43.640Z,71.85
2022-12-18T01:26:04.707Z,71.83
2022-12-18T01:26:25.785Z,71.81
2022-12-18T01:26:46.852Z,71.82
2022-12-18T01:27:07.906Z,71.81
2022-12-18T01:27:28.978Z,71.84
2022-12-18T01:27:50.031Z,71.87
2022-12-18T01:28:11.089Z,71.92
2022-12-18T01:28:32.165Z,71.91
2022-12-18T01:28:53.271Z,71.96
2022-12-18T01:29:14.330Z,71.97
2022-12-18T01:29:35.403Z,71.96
2022-12-18T01:29:56.473Z,71.93
2022-12-18T01:30:17.521Z,71.99
2022-12-18T01:30:38.579Z,71.95
2022-12-18T01:30:59.636Z,71.96
2022-12-18T01:31:20.778Z,72.01
2022-12-18T01:31:42.014Z,72.03
2022-12-18T01:32:03.114Z,72.04
2022-12-18T01:32:24.224Z,72.02
2022-12-18T01:32:45.294Z,71.98
2022-12-18T01:33:06.361Z,71.99
2022-12-18T01:33:27.421Z,71.97
2022-12-18T01:33:48.493Z,71.95
2022-12-18T01:34:09.704Z,71.97
2022-12-18T01:34:30.776Z,71.93
2022-12-18T01:34:51.939Z,71.89
2022-12-18T01:35:12.999Z,71.95
2022-12-18T01:35:34.035Z,71.96
2022-12-18T01:35:55.161Z,71.94
2022-12-18T01:36:16.214Z,71.86
2022-12-18T01:36:37.285Z,71.83
2022-12-18T01:36:58.374Z,71.77
2022-12-18T01:37:19.496Z,71.75
2022-12-18T01:37:40.556Z,71.76
2022-12-18T01:38:01.620Z,71.74
2022-12-18T01:38:22.677Z,71.69
2022-12-18T01:38:43.742Z,71.71
2022-12-18T01:39:04.810Z,71.75
2022-12-18T01:39:26.043Z,71.67
2022-12-18T01:39:47.102Z,71.72
2022-12-18T01:40:08.160Z,71.66
2022-12-18T01:40:29.244Z,71.69
2022-12-18T01:40:50.297Z,71.67
2022-12-18T01:41:11.377Z,71.66
2022-12-18T01:41:32.438Z,71.67
2022-12-18T01:41:53.519Z,71.67
2022-12-18T01:42:14.550Z,71.65
2022-12-18T01:42:35.638Z,71.63
2022-12-18T01:42:56.705Z,71.64
2022-12-18T01:43:17.775Z,71.59
2022-12-18T01:43:39.337Z,71.60
2022-12-18T01:44:00.593Z,71.60
2022-12-18T01:44:21.650Z,71.60
2022-12-18T01:44:42.890Z,71.60
2022-12-18T01:45:03.984Z,71.61
2022-12-18T01:45:25.081Z,71.58
2022-12-18T01:45:46.192Z,71.58
2022-12-18T01:46:07.335Z,71.59
2022-12-18T01:46:28.392Z,71.61
2022-12-18T01:46:49.440Z,71.63
2022-12-18T01:47:10.511Z,71.63
2022-12-18T01:47:31.585Z,71.61
2022-12-18T01:47:52.679Z,71.59
2022-12-18T01:48:13.721Z,71.61
2022-12-18T01:48:34.801Z,71.55
2022-12-18T01:48:55.857Z,71.55
2022-12-18T01:49:16.935Z,71.47
2022-12-18T01:49:37.998Z,71.47
2022-12-18T01:49:59.235Z,71.52
2022-12-18T01:50:20.322Z,71.50
2022-12-18T01:50:41.370Z,71.55
2022-12-18T01:51:02.430Z,71.52
2022-12-18T01:51:23.512Z,71.39
2022-12-18T01:51:44.561Z,71.45
2022-12-18T01:52:05.616Z,71.34
2022-12-18T01:52:26.703Z,71.32
2022-12-18T01:52:47.760Z,71.24
2022-12-18T01:53:08.814Z,71.25
2022-12-18T01:53:29.887Z,71.22
2022-12-18T01:53:50.944Z,71.19
2022-12-18T01:54:12.076Z,71.22
2022-12-18T01:54:33.108Z,71.25
2022-12-18T01:54:54.167Z,71.28
2022-12-18T01:55:15.421Z,71.25
2022-12-18T01:55:36.488Z,71.25
2022-12-18T01:55:57.651Z,71.18
2022-12-18T01:56:18.666Z,71.15
2022-12-18T01:56:39.732Z,71.05
2022-12-18T01:57:00.798Z,70.96
2022-12-18T01:57:21.885Z,70.95
2022-12-18T01:57:42.938Z,70.86
2022-12-18T01:58:04.012Z,70.82
2022-12-18T01:58:25.075Z,70.75
2022-12-18T01:58:46.129Z,70.77
2022-12-18T01:59:07.239Z,70.70
2022-12-18T01:59:28.300Z,70.69
2022-12-18T01:59:49.374Z,70.64
2022-12-18T02:00:10.487Z,70.59
2022-12-18T02:00:31.538Z,70.59
2022-12-18T02:00:52.694Z,70.60
2022-12-18T02:01:13.926Z,70.52
2022-12-18T02:01:35.205Z,70.51
2022-12-18T02:01:56.699Z,70.51
2022-12-18T02:02:18.005Z,70.46
2022-12-18T02:02:39.235Z,70.49
2022-12-18T02:03:00.487Z,70.44
2022-12-18T02:03:21.729Z,70.44
2022-12-18T02:03:42.818Z,70.43
2022-12-18T02:04:03.879Z,70.44
2022-12-18T02:04:24.937Z,70.38
2022-12-18T02:04:49.380Z,70.43
2022-12-18T02:05:10.768Z,70.50
2022-12-18T02:05:31.861Z,70.53
2022-12-18T02:05:52.908Z,70.53
2022-12-18T02:06:13.977Z,70.54
2022-12-18T02:06:35.029Z,70.53
2022-12-18T02:06:56.183Z,70.49
2022-12-18T02:07:17.217Z,70.45
2022-12-18T02:07:38.275Z,70.38
2022-12-18T02:07:59.342Z,70.34
2022-12-18T02:08:20.398Z,70.27
2022-12-18T02:08:41.501Z,70.26
2022-12-18T02:09:02.556Z,70.28
2022-12-18T02:09:23.626Z,70.35
2022-12-18T02:09:44.682Z,70.33
2022-12-18T02:10:05.784Z,70.38
2022-12-18T02:10:26.839Z,70.39
2022-12-18T02:10:47.931Z,70.37
2022-12-18T02:11:09.014Z,70.32
2022-12-18T02:11:30.063Z,70.33
2022-12-18T02:11:51.133Z,70.42
2022-12-18T02:12:12.187Z,70.33
2022-12-18T02:12:33.362Z,70.32
2022-12-18T02:12:54.388Z,70.36
2022-12-18T02:13:15.442Z,70.34
2022-12-18T02:13:36.939Z,70.33
2022-12-18T02:13:58.213Z,70.28
2022-12-18T02:14:19.281Z,70.30
2022-12-18T02:14:40.358Z,70.30
2022-12-18T02:15:01.417Z,70.31
2022-12-18T02:15:22.536Z,70.31
2022-12-18T02:15:43.644Z,70.34
2022-12-18T02:16:04.802Z,70.32
2022-12-18T02:16:25.901Z,70.31
2022-12-18T02:16:47.001Z,70.29
2022-12-18T02:17:08.065Z,70.30
2022-12-18T02:17:29.119Z,70.25
2022-12-18T02:17:50.181Z,70.21
2022-12-18T02:18:11.240Z,70.23
2022-12-18T02:18:32.395Z,70.15
2022-12-18T02:18:53.428Z,70.15
2022-12-18T02:19:14.488Z,70.11
2022-12-18T02:19:35.543Z,70.10
2022-12-18T02:19:56.638Z,70.08
2022-12-18T02:20:17.714Z,70.04
2022-12-18T02:20:38.777Z,70.09
2022-12-18T02:20:59.841Z,70.11
2022-12-18T02:21:21.065Z,70.17
2022-12-18T02:21:42.163Z,70.15
2022-12-18T02:22:03.199Z,70.19
2022-12-18T02:22:24.253Z,70.26
2022-12-18T02:22:46.106Z,70.28
2022-12-18T02:23:07.187Z,70.31
2022-12-18T02:23:28.257Z,70.30
2022-12-18T02:23:49.309Z,70.36
2022-12-18T02:24:10.375Z,70.36
2022-12-18T02:24:31.486Z,70.39
2022-12-18T02:24:52.505Z,70.39
2022-12-18T02:25:13.551Z,70.35
2022-12-18T02:25:34.625Z,70.41
2022-12-18T02:25:55.685Z,70.42
2022-12-18T02:26:16.930Z,70.42
2022-12-18T02:26:38.010Z,70.48
2022-12-18T02:26:59.057Z,70.46
2022-12-18T02:27:20.120Z,70.49
2022-12-18T02:27:41.305Z,70.47
2022-12-18T02:28:02.313Z,70.47
2022-12-18T02:28:23.373Z,70.47
2022-12-18T02:28:44.497Z,70.46
2022-12-18T02:29:05.558Z,70.46
2022-12-18T02:29:26.616Z,70.52
2022-12-18T02:29:51.662Z,70.54
2022-12-18T02:30:14.670Z,70.66
2022-12-18T02:30:35.748Z,70.70
2022-12-18T02:30:56.848Z,70.69
2022-12-18T02:31:18.117Z,70.61
2022-12-18T02:31:39.219Z,70.59
2022-12-18T02:32:00.264Z,70.59
2022-12-18T02:32:21.304Z,70.48
2022-12-18T02:32:42.376Z,70.42
2022-12-18T02:33:03.463Z,70.42
2022-12-18T02:33:24.508Z,70.33
2022-12-18T02:33:45.551Z,70.38
2022-12-18T02:34:06.623Z,70.31
2022-12-18T02:34:27.825Z,70.26
2022-12-18T02:34:48.838Z,70.24
2022-12-18T02:35:09.915Z,70.23
2022-12-18T02:35:30.970Z,70.21
2022-12-18T02:35:52.124Z,70.18
2022-12-18T02:36:13.142Z,70.16
2022-12-18T02:36:34.354Z,70.15
2022-12-18T02:36:55.374Z,70.20
2022-12-18T02:37:16.440Z,70.19
2022-12-18T02:37:37.506Z,70.24
2022-12-18T02:37:58.573Z,70.21
2022-12-18T02:38:19.687Z,70.27
2022-12-18T02:38:40.699Z,70.34
2022-12-18T02:39:01.792Z,70.35
2022-12-18T02:39:22.833Z,70.38
2022-12-18T02:39:43.901Z,70.40
2022-12-18T02:40:04.983Z,70.34
2022-12-18T02:40:26.027Z,70.39
2022-12-18T02:40:47.082Z,70.38
2022-12-18T02:41:08.203Z,70.39
2022-12-18T02:41:29.267Z,70.39
2022-12-18T02:41:50.362Z,70.44
2022-12-18T02:42:11.400Z,70.42
2022-12-18T02:42:32.454Z,70.35
2022-12-18T02:42:53.628Z,70.37
2022-12-18T02:43:14.629Z,70.30
2022-12-18T02:43:35.925Z,70.30
2022-12-18T02:43:57.142Z,70.29
2022-12-18T02:44:18.518Z,70.31
2022-12-18T02:44:39.577Z,70.32
2022-12-18T02:45:00.750Z,70.32
2022-12-18T02:45:21.807Z,70.35
2022-12-18T02:45:42.990Z,70.38
2022-12-18T02:46:04.081Z,70.35
2022-12-18T02:46:25.169Z,70.43
2022-12-18T02:46:46.230Z,70.42
2022-12-18T02:47:07.279Z,70.49
2022-12-18T02:47:28.331Z,70.53
2022-12-18T02:47:49.430Z,70.58
2022-12-18T02:48:10.479Z,70.61
2022-12-18T02:48:31.556Z,70.64
2022-12-18T02:48:52.660Z,70.64
2022-12-18T02:49:13.703Z,70.67
2022-12-18T02:49:34.768Z,70.71
2022-12-18T02:49:55.837Z,70.72
2022-12-18T02:50:16.912Z,70.78
2022-12-18T02:50:37.972Z,70.78
2022-12-18T02:50:59.119Z,70.74
2022-12-18T02:51:20.149Z,70.78
2022-12-18T02:51:41.201Z,70.76
2022-12-18T02:52:02.505Z,70.78
2022-12-18T02:52:23.533Z,70.79
2022-12-18T02:52:44.592Z,70.85
2022-12-18T02:53:05.641Z,70.87
2022-12-18T02:53:26.716Z,70.87
2022-12-18T02:53:47.757Z,70.84
2022-12-18T02:54:08.904Z,70.78
2022-12-18T02:54:29.935Z,70.83
2022-12-18T02:54:51.455Z,70.85
2022-12-18T02:55:12.553Z,70.81
2022-12-18T02:55:33.704Z,70.78
2022-12-18T02:55:54.742Z,70.81
2022-12-18T02:56:15.835Z,70.78
2022-12-18T02:56:36.863Z,70.76
2022-12-18T02:56:57.923Z,70.78
2022-12-18T02:57:19.145Z,70.75
2022-12-18T02:57:40.215Z,70.67
2022-12-18T02:58:01.394Z,70.59
2022-12-18T02:58:22.412Z,70.54
2022-12-18T02:58:43.475Z,70.49
2022-12-18T02:59:04.557Z,70.46
2022-12-18T02:59:25.604Z,70.44
2022-12-18T02:59:46.670Z,70.49
2022-12-18T03:00:07.725Z,70.46
2022-12-18T03:00:28.778Z,70.47
2022-12-18T03:00:49.904Z,70.51
2022-12-18T03:01:11.082Z,70.47
2022-12-18T03:01:32.355Z,70.55
2022-12-18T03:01:53.637Z,70.58
2022-12-18T03:02:14.963Z,70.62
2022-12-18T03:02:36.251Z,70.62
2022-12-18T03:02:57.529Z,70.64
2022-12-18T03:03:18.708Z,70.59
2022-12-18T03:03:41.855Z,70.52
2022-12-18T03:04:03.118Z,70.42
2022-12-18T03:04:24.183Z,70.23
2022-12-18T03:04:45.243Z,70.16
2022-12-18T03:05:06.299Z,70.03
2022-12-18T03:05:27.433Z,69.97
2022-12-18T03:05:48.464Z,69.87
2022-12-18T03:06:09.517Z,69.83
2022-12-18T03:06:30.571Z,69.71
2022-12-18T03:06:51.682Z,69.65
2022-12-18T03:07:12.739Z,69.66
2022-12-18T03:07:33.795Z,69.62
2022-12-18T03:07:54.912Z,69.58
2022-12-18T03:08:15.960Z,69.57
2022-12-18T03:08:37.021Z,69.56
2022-12-18T03:08:58.097Z,69.59
2022-12-18T03:09:19.149Z,69.61
2022-12-18T03:09:40.225Z,69.69
2022-12-18T03:10:01.286Z,69.73
2022-12-18T03:10:22.355Z,69.80
2022-12-18T03:10:43.412Z,69.80
2022-12-18T03:11:04.499Z,69.81
2022-12-18T03:11:25.565Z,69.84
2022-12-18T03:11:46.653Z,69.83
2022-12-18T03:12:07.695Z,69.80
2022-12-18T03:12:28.749Z,69.79
2022-12-18T03:12:49.815Z,69.79
2022-12-18T03:13:11.126Z,69.77
2022-12-18T03:13:32.137Z,69.72
2022-12-18T03:13:53.210Z,69.70
2022-12-18T03:14:14.321Z,69.63
2022-12-18T03:14:35.361Z,69.61
2022-12-18T03:14:56.418Z,69.60
2022-12-18T03:15:17.983Z,69.62
2022-12-18T03:15:39.196Z,69.60
2022-12-18T03:16:00.253Z,69.57
2022-12-18T03:16:21.349Z,69.56
2022-12-18T03:16:42.544Z,69.50
2022-12-18T03:17:03.660Z,69.48
2022-12-18T03:17:25.944Z,69.46
2022-12-18T03:17:47.012Z,69.38
2022-12-18T03:18:08.092Z,69.45
2022-12-18T03:18:29.321Z,69.46
2022-12-18T03:18:50.394Z,69.49
2022-12-18T03:19:11.444Z,69.49
2022-12-18T03:19:32.707Z,69.50
2022-12-18T03:19:53.775Z,69.54
2022-12-18T03:20:14.874Z,69.54
2022-12-18T03:20:35.931Z,69.60
2022-12-18T03:20:56.999Z,69.61
2022-12-18T03:21:18.100Z,69.64
2022-12-18T03:21:39.143Z,69.61
2022-12-18T03:22:00.582Z,69.61
2022-12-18T03:22:21.644Z,69.61
2022-12-18T03:22:42.721Z,69.57
2022-12-18T03:23:03.773Z,69.50
2022-12-18T03:23:26.453Z,69.48
2022-12-18T03:23:47.710Z,69.45
2022-12-18T03:24:08.807Z,69.43
2022-12-18T03:24:30.832Z,69.42
2022-12-18T03:24:51.893Z,69.38
2022-12-18T03:25:12.951Z,69.38
2022-12-18T03:25:34.021Z,69.29
2022-12-18T03:25:55.131Z,69.27
2022-12-18T03:26:16.162Z,69.28
2022-12-18T03:26:37.220Z,69.30
2022-12-18T03:26:58.815Z,69.26
2022-12-18T03:27:19.855Z,69.25
2022-12-18T03:27:40.925Z,69.26
2022-12-18T03:28:01.989Z,69.25
2022-12-18T03:28:23.179Z,69.25
2022-12-18T03:28:44.199Z,69.29
2022-12-18T03:29:05.410Z,69.36
2022-12-18T03:29:26.531Z,69.42
2022-12-18T03:29:47.563Z,69.44
2022-12-18T03:30:08.618Z,69.49
2022-12-18T03:30:29.734Z,69.48
2022-12-18T03:30:50.804Z,69.47
2022-12-18T03:31:11.923Z,69.51
2022-12-18T03:31:32.976Z,69.53
2022-12-18T03:31:54.022Z,69.53
2022-12-18T03:32:15.082Z,69.58
2022-12-18T03:32:36.162Z,69.58
2022-12-18T03:33:00.255Z,69.61
2022-12-18T03:33:21.607Z,69.55
2022-12-18T03:33:43.064Z,69.57
2022-12-18T03:34:04.118Z,69.63
2022-12-18T03:34:25.328Z,69.69
2022-12-18T03:34:46.461Z,69.73
2022-12-18T03:35:07.507Z,69.85
2022-12-18T03:35:28.551Z,69.84
2022-12-18T03:35:49.623Z,69.88
2022-12-18T03:36:10.711Z,69.88
2022-12-18T03:36:31.746Z,69.97
2022-12-18T03:36:52.814Z,69.99
2022-12-18T03:37:13.874Z,70.00
2022-12-18T03:37:34.940Z,70.02
2022-12-18T03:37:56.004Z,70.04
2022-12-18T03:38:17.063Z,70.03
2022-12-18T03:38:38.138Z,70.06
2022-12-18T03:38:59.218Z,70.00
2022-12-18T03:39:20.261Z,70.07
2022-12-18T03:39:41.405Z,70.07
2022-12-18T03:40:02.438Z,70.08
2022-12-18T03:40:23.499Z,70.10
2022-12-18T03:40:44.542Z,70.14
2022-12-18T03:41:05.628Z,70.17
2022-12-18T03:41:26.690Z,70.19
2022-12-18T03:41:47.944Z,70.23
2022-12-18T03:42:09.001Z,70.25
2022-12-18T03:42:30.061Z,70.28
2022-12-18T03:42:51.125Z,70.22
2022-12-18T03:43:12.184Z,70.27
2022-12-18T03:43:33.369Z,70.24
2022-12-18T03:43:54.433Z,70.26
2022-12-18T03:44:15.527Z,70.21
2022-12-18T03:44:36.572Z,70.25
2022-12-18T03:44:57.809Z,70.26
2022-12-18T03:45:18.840Z,70.29
2022-12-18T03:45:39.943Z,70.25
2022-12-18T03:46:01.068Z,70.27
2022-12-18T03:46:22.168Z,70.26
2022-12-18T03:46:43.510Z,70.25
2022-12-18T03:47:04.578Z,70.21
2022-12-18T03:47:25.688Z,70.25
2022-12-18T03:47:46.728Z,70.26
2022-12-18T03:48:07.802Z,70.26
2022-12-18T03:48:28.849Z,70.26
2022-12-18T03:48:49.931Z,70.24
2022-12-18T03:49:11.049Z,70.19
2022-12-18T03:49:32.072Z,70.19
2022-12-18T03:49:53.129Z,70.19
2022-12-18T03:50:14.283Z,70.18
2022-12-18T03:50:35.307Z,70.17
2022-12-18T03:50:56.363Z,70.18
2022-12-18T03:51:17.427Z,70.17
2022-12-18T03:51:38.491Z,70.13
2022-12-18T03:51:59.566Z,70.05
2022-12-18T03:52:20.622Z,70.04
2022-12-18T03:52:41.683Z,70.00
2022-12-18T03:53:02.735Z,69.99
2022-12-18T03:53:23.806Z,69.97
2022-12-18T03:53:44.848Z,69.89
2022-12-18T03:54:05.905Z,69.91
2022-12-18T03:54:26.969Z,69.90
2022-12-18T03:54:48.038Z,69.88
2022-12-18T03:55:09.095Z,69.87
2022-12-18T03:55:30.202Z,69.89
2022-12-18T03:55:51.250Z,69.87
2022-12-18T03:56:12.326Z,69.88
2022-12-18T03:56:33.436Z,69.82
2022-12-18T03:56:54.498Z,69.89
2022-12-18T03:57:15.557Z,69.85
2022-12-18T03:57:36.607Z,69.91
2022-12-18T03:57:57.670Z,69.87
2022-12-18T03:58:18.788Z,69.82
2022-12-18T03:58:39.911Z,69.78
2022-12-18T03:59:03.127Z,69.79
2022-12-18T03:59:24.169Z,69.76
2022-12-18T03:59:45.252Z,69.75
2022-12-18T04:00:06.328Z,69.71
2022-12-18T04:00:27.365Z,69.69
2022-12-18T04:00:48.466Z,69.63
2022-12-18T04:01:09.602Z,69.61
2022-12-18T04:01:30.748Z,69.58
2022-12-18T04:01:52.014Z,69.59
2022-12-18T04:02:13.308Z,69.46
2022-12-18T04:02:34.554Z,69.46
2022-12-18T04:02:55.675Z,69.45
2022-12-18T04:03:16.802Z,69.48
2022-12-18T04:03:37.968Z,69.50
2022-12-18T04:03:59.050Z,69.42
2022-12-18T04:04:20.131Z,69.40
2022-12-18T04:04:41.174Z,69.34
2022-12-18T04:05:02.246Z,69.28
2022-12-18T04:05:23.289Z,69.27
2022-12-18T04:05:44.503Z,69.21
2022-12-18T04:06:05.562Z,69.13
2022-12-18T04:06:26.646Z,69.16
2022-12-18T04:06:47.689Z,69.06
2022-12-18T04:07:08.757Z,69.06
2022-12-18T04:07:29.830Z,69.09
2022-12-18T04:07:50.894Z,69.09
2022-12-18T04:08:11.937Z,69.13
2022-12-18T04:08:32.990Z,69.11
2022-12-18T04:08:54.046Z,69.19
2022-12-18T04:09:15.135Z,69.20
2022-12-18T04:09:36.269Z,69.20
2022-12-18T04:09:57.299Z,69.30
2022-12-18T04:10:18.355Z,69.26
2022-12-18T04:10:39.427Z,69.34
2022-12-18T04:11:00.649Z,69.37
2022-12-18T04:11:21.718Z,69.40
2022-12-18T04:11:42.770Z,69.51
2022-12-18T04:12:03.831Z,69.57
2022-12-18T04:12:24.917Z,69.60
2022-12-18T04:12:45.965Z,69.63
2022-12-18T04:13:07.016Z,69.70
2022-12-18T04:13:28.073Z,69.67
2022-12-18T04:13:49.257Z,69.73
2022-12-18T04:14:14.411Z,69.72
2022-12-18T04:14:37.251Z,69.80
2022-12-18T04:14:58.369Z,69.83
2022-12-18T04:15:19.408Z,69.87
2022-12-18T04:15:40.572Z,69.87
2022-12-18T04:16:01.906Z,69.89
2022-12-18T04:16:22.936Z,69.87
2022-12-18T04:16:44.008Z,69.94
2022-12-18T04:17:05.060Z,69.95
2022-12-18T04:17:26.126Z,69.93
2022-12-18T04:17:47.190Z,69.98
2022-12-18T04:18:08.280Z,69.95
2022-12-18T04:18:29.329Z,69.98
2022-12-18T04:18:50.411Z,69.89
2022-12-18T04:19:11.494Z,69.90
2022-12-18T04:19:32.614Z,69.92
2022-12-18T04:19:53.685Z,69.92
2022-12-18T04:20:14.714Z,69.92
2022-12-18T04:20:35.784Z,69.92
2022-12-18T04:20:56.857Z,69.89
2022-12-18T04:21:17.932Z,69.91
2022-12-18T04:21:39.055Z,69.95
2022-12-18T04:22:00.121Z,69.88
2022-12-18T04:22:21.153Z,69.84
2022-12-18T04:22:42.207Z,69.82
2022-12-18T04:23:03.272Z,69.74
2022-12-18T04:23:24.385Z,69.72
2022-12-18T04:23:45.424Z,69.69
2022-12-18T04:24:06.484Z,69.66
2022-12-18T04:24:27.535Z,69.63
2022-12-18T04:24:48.589Z,69.52
2022-12-18T04:25:09.667Z,69.52
2022-12-18T04:25:30.724Z,69.48
2022-12-18T04:25:51.787Z,69.49
2022-12-18T04:26:12.847Z,69.50
2022-12-18T04:26:33.944Z,69.49
2022-12-18T04:26:55.001Z,69.48
2022-12-18T04:27:16.049Z,69.45
2022-12-18T04:27:37.195Z,69.42
2022-12-18T04:27:58.221Z,69.40
2022-12-18T04:28:19.288Z,69.37
2022-12-18T04:28:40.448Z,69.39
2022-12-18T04:29:01.624Z,69.36
2022-12-18T04:29:22.643Z,69.34
2022-12-18T04:29:43.688Z,69.35
2022-12-18T04:30:04.788Z,69.34
2022-12-18T04:30:25.846Z,69.38
2022-12-18T04:30:46.927Z,69.35
2022-12-18T04:31:08.337Z,69.34
2022-12-18T04:31:29.463Z,69.38
2022-12-18T04:31:50.668Z,69.37
2022-12-18T04:32:11.724Z,69.29
2022-12-18T04:32:32.784Z,69.29
2022-12-18T04:32:53.880Z,69.13